Time;durP1;ratioP1;P1;durP2;ratioP2;P2;SDS_P1;SDS_P2;PMS_P1;PMS_P2;Temp;Humidity;BMP_temperature;BMP_pressure;BME280_temperature;BME280_humidity;BME280_pressure;Samples;Min_cycle;Max_cycle;Signal;HPM_P1;HPM_P2
2023/04/03 00:02:07;;;;;;;0.30;0.03;;;8.60;84.60;;;;;;4985291;28;93224;-70
2023/04/03 00:04:33;;;;;;;0.30;0.08;;;8.60;85.20;;;;;;4980564;28;92879;-71
2023/04/03 00:06:59;;;;;;;0.30;0.05;;;8.50;84.20;;;;;;4985259;28;92436;-70
2023/04/03 00:09:25;;;;;;;0.35;0.03;;;8.50;83.90;;;;;;4992944;28;92535;-71
2023/04/03 00:11:50;;;;;;;0.28;0.00;;;8.40;84.60;;;;;;4973869;28;93791;-70
2023/04/03 00:14:16;;;;;;;0.57;0.03;;;8.50;84.30;;;;;;4968254;28;92184;-70
2023/04/03 00:16:42;;;;;;;0.30;0.10;;;8.40;83.70;;;;;;4967605;28;94397;-70
2023/04/03 00:19:07;;;;;;;0.40;0.10;;;8.40;83.50;;;;;;4976809;28;92674;-70
2023/04/03 00:21:33;;;;;;;0.70;0.10;;;8.40;83.50;;;;;;4971850;28;93694;-70
2023/04/03 00:23:59;;;;;;;0.50;0.10;;;8.50;83.20;;;;;;4982477;28;94215;-70
2023/04/03 00:26:25;;;;;;;0.32;0.03;;;8.50;83.00;;;;;;4966536;28;92486;-70
2023/04/03 00:28:51;;;;;;;0.40;0.10;;;8.50;83.00;;;;;;4966404;28;92572;-70
2023/04/03 00:31:18;;;;;;;0.28;0.00;;;8.50;82.40;;;;;;4967791;28;93190;-70
2023/04/03 00:33:43;;;;;;;0.30;0.10;;;8.50;81.80;;;;;;4973664;28;94154;-70
2023/04/03 00:36:10;;;;;;;0.50;0.10;;;8.60;82.20;;;;;;4977877;28;92936;-70
2023/04/03 00:38:36;;;;;;;0.40;0.10;;;8.60;82.40;;;;;;4968743;28;91520;-71
2023/04/03 00:41:02;;;;;;;0.60;0.10;;;8.60;82.80;;;;;;4966496;28;93140;-71
2023/04/03 00:43:28;;;;;;;0.60;0.10;;;8.60;83.40;;;;;;4975501;28;92852;-70
2023/04/03 00:45:58;;;;;;;0.52;0.13;;;8.60;82.30;;;;;;4976028;28;93523;-70
2023/04/03 00:48:31;;;;;;;1.45;0.13;;;8.60;81.90;;;;;;4976970;28;92134;-70
2023/04/03 00:50:58;;;;;;;0.60;0.20;;;8.50;81.40;;;;;;4957273;28;93207;-70
2023/04/03 00:53:47;;;;;;;0.63;0.13;;;8.50;81.70;;;;;;4964854;28;92507;-71
2023/04/03 00:56:17;;;;;;;0.63;0.22;;;8.50;82.30;;;;;;4974245;28;92409;-70
2023/04/03 00:58:57;;;;;;;1.50;0.17;;;8.40;82.20;;;;;;4967828;28;94057;-70
2023/04/03 01:01:26;;;;;;;1.77;0.20;;;8.40;81.60;;;;;;4972834;28;92743;-71
2023/04/03 01:03:52;;;;;;;0.70;0.30;;;8.40;81.30;;;;;;4977824;28;92719;-71
2023/04/03 01:06:22;;;;;;;0.75;0.20;;;8.50;81.00;;;;;;4974152;28;92952;-70
2023/04/03 01:08:49;;;;;;;0.95;0.22;;;8.40;81.00;;;;;;4972985;28;92102;-70
2023/04/03 01:11:15;;;;;;;1.20;0.40;;;8.40;80.40;;;;;;4966190;28;94045;-71
2023/04/03 01:13:41;;;;;;;1.25;0.30;;;8.40;80.60;;;;;;4985750;28;94292;-71
2023/04/03 01:16:07;;;;;;;0.90;0.30;;;8.30;80.80;;;;;;4969490;28;92147;-71
2023/04/03 01:18:34;;;;;;;1.13;0.22;;;8.20;80.00;;;;;;4963586;28;93373;-71
2023/04/03 01:21:18;;;;;;;1.70;0.20;;;8.20;80.40;;;;;;4962590;28;93684;-70
2023/04/03 01:24:19;;;;;;;1.15;0.40;;;8.10;80.20;;;;;;4966950;28;93321;-71
2023/04/03 01:26:45;;;;;;;1.02;0.40;;;8.10;80.40;;;;;;4971535;28;92587;-70
2023/04/03 01:29:11;;;;;;;1.02;0.30;;;8.10;80.60;;;;;;4966117;28;93135;-70
2023/04/03 01:31:52;;;;;;;1.40;0.43;;;8.10;79.90;;;;;;4974268;28;92551;-70
2023/04/03 01:34:18;;;;;;;1.30;0.32;;;8.00;78.80;;;;;;4971883;28;93655;-70
2023/04/03 01:36:44;;;;;;;1.75;0.52;;;7.90;78.20;;;;;;4968150;28;93502;-70
2023/04/03 01:39:10;;;;;;;1.23;0.32;;;7.90;75.60;;;;;;4992393;28;92680;-70
2023/04/03 01:41:36;;;;;;;1.75;0.55;;;7.80;76.10;;;;;;4978896;28;93543;-70
2023/04/03 01:44:02;;;;;;;1.88;0.43;;;7.70;76.10;;;;;;4977933;28;93033;-72
2023/04/03 01:46:27;;;;;;;1.98;0.60;;;7.60;75.50;;;;;;4973326;28;94174;-70
2023/04/03 01:48:53;;;;;;;1.63;0.75;;;7.60;75.40;;;;;;4978914;28;92580;-70
2023/04/03 01:51:19;;;;;;;2.58;0.82;;;7.60;75.40;;;;;;4994156;28;92670;-70
2023/04/03 01:53:44;;;;;;;4.35;0.82;;;7.50;77.20;;;;;;4974931;28;92778;-68
2023/04/03 01:56:10;;;;;;;2.75;0.68;;;7.40;77.40;;;;;;4972164;28;92354;-68
2023/04/03 01:58:36;;;;;;;3.55;0.70;;;7.50;77.90;;;;;;4977334;28;92541;-69
2023/04/03 02:01:02;;;;;;;2.03;0.70;;;7.50;77.90;;;;;;4974908;28;93395;-70
2023/04/03 02:03:28;;;;;;;2.38;0.90;;;7.50;78.20;;;;;;4974525;28;93927;-70
2023/04/03 02:05:53;;;;;;;2.03;0.63;;;7.50;77.90;;;;;;4975124;28;93548;-70
2023/04/03 02:08:19;;;;;;;2.35;0.98;;;7.50;78.40;;;;;;4971889;28;92153;-70
2023/04/03 02:10:47;;;;;;;2.70;1.02;;;7.40;77.10;;;;;;4967987;28;93156;-70
2023/04/03 02:13:13;;;;;;;3.08;1.00;;;7.40;77.80;;;;;;4969277;28;92812;-70
2023/04/03 02:15:39;;;;;;;4.10;1.20;;;7.40;77.90;;;;;;4981979;28;92380;-70
2023/04/03 02:18:05;;;;;;;2.53;0.98;;;7.40;77.70;;;;;;4985117;28;92667;-69
2023/04/03 02:20:31;;;;;;;2.83;1.02;;;7.30;76.90;;;;;;4974676;28;93238;-70
2023/04/03 02:22:57;;;;;;;3.10;1.33;;;7.20;77.80;;;;;;4970831;28;92916;-69
2023/04/03 02:25:22;;;;;;;2.90;1.13;;;7.10;77.60;;;;;;4970678;28;93774;-71
2023/04/03 02:27:48;;;;;;;3.47;1.42;;;7.00;77.60;;;;;;4962384;28;92494;-71
2023/04/03 02:30:14;;;;;;;3.47;1.27;;;6.80;76.80;;;;;;4972349;28;93611;-70
2023/04/03 02:32:40;;;;;;;3.05;1.23;;;6.80;77.10;;;;;;4971178;28;93248;-69
2023/04/03 02:35:06;;;;;;;3.10;1.40;;;6.80;77.90;;;;;;4977332;28;93498;-72
2023/04/03 02:37:32;;;;;;;4.90;1.65;;;6.80;78.00;;;;;;4974315;28;92567;-71
2023/04/03 02:39:58;;;;;;;3.70;1.67;;;6.70;78.10;;;;;;4975991;28;92845;-71
2023/04/03 02:42:24;;;;;;;5.60;3.05;;;6.70;78.40;;;;;;4977325;28;92228;-71
2023/04/03 02:44:49;;;;;;;4.18;2.17;;;6.60;78.50;;;;;;4971895;28;92833;-68
2023/04/03 02:47:16;;;;;;;4.68;1.98;;;6.50;78.70;;;;;;4975072;28;92592;-69
2023/04/03 02:49:44;;;;;;;3.92;1.95;;;6.50;78.30;;;;;;4979312;28;94264;-71
2023/04/03 02:52:10;;;;;;;4.57;1.85;;;6.50;78.70;;;;;;4967101;28;94216;-70
2023/04/03 02:54:36;;;;;;;3.45;1.50;;;6.30;78.90;;;;;;4979533;28;92125;-71
2023/04/03 02:57:01;;;;;;;3.60;1.85;;;6.30;79.10;;;;;;4982102;28;93195;-70
2023/04/03 02:59:27;;;;;;;3.80;1.88;;;6.20;79.40;;;;;;4978002;28;93020;-71
2023/04/03 03:01:52;;;;;;;4.78;1.95;;;6.30;79.20;;;;;;4971786;28;92413;-70
2023/04/03 03:04:18;;;;;;;3.70;1.80;;;6.30;79.20;;;;;;4975201;28;92656;-70
2023/04/03 03:06:44;;;;;;;4.45;1.83;;;6.30;79.80;;;;;;4976585;28;91921;-70
2023/04/03 03:09:10;;;;;;;3.83;1.83;;;6.30;79.60;;;;;;4977971;28;93059;-70
2023/04/03 03:11:36;;;;;;;5.22;2.08;;;6.30;79.80;;;;;;4968102;28;92796;-71
2023/04/03 03:14:01;;;;;;;3.80;1.95;;;6.30;79.50;;;;;;4975039;28;92998;-71
2023/04/03 03:16:27;;;;;;;10.82;2.13;;;6.20;79.30;;;;;;4979491;28;92621;-71
2023/04/03 03:18:53;;;;;;;4.40;2.03;;;6.20;79.70;;;;;;4970382;28;94555;-71
2023/04/03 03:21:18;;;;;;;5.18;2.20;;;6.20;79.10;;;;;;4968219;28;92240;-70
2023/04/03 03:23:44;;;;;;;4.00;2.00;;;6.20;79.00;;;;;;4976739;28;92113;-70
2023/04/03 03:26:11;;;;;;;4.95;2.08;;;6.10;78.70;;;;;;4976430;28;92622;-71
2023/04/03 03:28:37;;;;;;;4.72;2.25;;;6.00;78.30;;;;;;4972682;28;92764;-70
2023/04/03 03:31:04;;;;;;;4.85;2.22;;;5.90;78.30;;;;;;4974842;28;91927;-71
2023/04/03 03:33:30;;;;;;;3.97;1.90;;;5.80;79.30;;;;;;4968912;28;92498;-70
2023/04/03 03:35:56;;;;;;;4.57;2.17;;;5.80;79.10;;;;;;4975672;28;92311;-71
2023/04/03 03:38:22;;;;;;;6.32;2.15;;;5.80;79.00;;;;;;4976350;28;94621;-71
2023/04/03 03:40:49;;;;;;;4.43;2.05;;;5.80;78.50;;;;;;4972319;28;93203;-70
2023/04/03 03:43:15;;;;;;;5.28;2.50;;;5.80;78.70;;;;;;4964524;28;92571;-71
2023/04/03 03:45:41;;;;;;;5.88;1.92;;;5.70;78.70;;;;;;4972662;28;92433;-71
2023/04/03 03:48:06;;;;;;;3.92;2.22;;;5.80;79.50;;;;;;4962931;28;93779;-71
2023/04/03 03:50:32;;;;;;;4.25;2.30;;;5.70;80.20;;;;;;4967297;28;93251;-70
2023/04/03 03:52:58;;;;;;;4.53;2.10;;;5.60;78.00;;;;;;4969209;28;92526;-70
2023/04/03 03:55:23;;;;;;;4.22;2.13;;;5.60;81.10;;;;;;4968264;28;92797;-71
2023/04/03 03:57:49;;;;;;;5.00;2.22;;;5.60;81.10;;;;;;4969573;28;93701;-70
2023/04/03 04:00:15;;;;;;;4.32;2.03;;;5.50;78.50;;;;;;4970076;28;93054;-70
2023/04/03 04:02:41;;;;;;;5.22;2.65;;;5.60;79.40;;;;;;4967612;28;93899;-70
2023/04/03 04:05:07;;;;;;;4.07;2.13;;;5.40;78.20;;;;;;4979440;28;92475;-70
2023/04/03 04:07:32;;;;;;;5.93;2.63;;;5.40;79.00;;;;;;4981462;28;92668;-70
2023/04/03 04:09:58;;;;;;;6.70;2.17;;;5.50;78.70;;;;;;4965790;28;93498;-70
2023/04/03 04:12:24;;;;;;;5.63;2.25;;;5.50;78.50;;;;;;4973893;28;94026;-71
2023/04/03 04:14:49;;;;;;;8.32;2.53;;;5.50;78.60;;;;;;4968191;28;92309;-71
2023/04/03 04:17:15;;;;;;;5.25;2.42;;;5.50;78.70;;;;;;4972149;28;93188;-70
2023/04/03 04:19:41;;;;;;;4.85;2.25;;;5.50;78.80;;;;;;4985029;28;92381;-71
2023/04/03 04:22:07;;;;;;;5.18;2.42;;;5.50;79.30;;;;;;4980769;28;92375;-71
2023/04/03 04:24:32;;;;;;;7.40;3.03;;;5.50;79.10;;;;;;4990251;28;92382;-70
2023/04/03 04:26:58;;;;;;;6.22;2.53;;;5.40;79.00;;;;;;4970537;28;93998;-70
2023/04/03 04:29:24;;;;;;;4.93;2.50;;;5.50;78.90;;;;;;4973256;28;93168;-71
2023/04/03 04:31:49;;;;;;;5.80;2.33;;;5.50;79.00;;;;;;4975173;28;92061;-70
2023/04/03 04:34:15;;;;;;;5.07;2.72;;;5.40;79.00;;;;;;4963239;28;92602;-73
2023/04/03 04:36:41;;;;;;;7.72;2.65;;;5.50;79.20;;;;;;4975189;28;95506;-71
2023/04/03 04:39:07;;;;;;;5.30;2.38;;;5.50;79.10;;;;;;4969831;28;93254;-70
2023/04/03 04:41:34;;;;;;;6.57;2.67;;;5.50;79.00;;;;;;4979765;28;92900;-71
2023/04/03 04:44:00;;;;;;;5.47;2.58;;;5.60;78.80;;;;;;4965946;28;91872;-71
2023/04/03 04:46:26;;;;;;;5.13;2.33;;;5.50;79.40;;;;;;4967881;28;92723;-72
2023/04/03 04:48:51;;;;;;;4.55;2.33;;;5.60;78.30;;;;;;4970762;28;93421;-72
2023/04/03 04:51:17;;;;;;;5.75;2.47;;;5.60;78.10;;;;;;4968165;28;93332;-70
2023/04/03 04:53:50;;;;;;;6.82;2.40;;;5.60;78.30;;;;;;4967697;28;92186;-69
2023/04/03 04:56:16;;;;;;;4.80;2.30;;;5.50;78.50;;;;;;4972645;28;93706;-70
2023/04/03 04:58:42;;;;;;;5.15;2.47;;;5.60;78.60;;;;;;4974340;28;92399;-70
2023/04/03 05:01:10;;;;;;;5.75;2.78;;;5.50;79.00;;;;;;4967600;28;92434;-71
2023/04/03 05:03:35;;;;;;;5.80;2.63;;;5.50;78.70;;;;;;4980017;28;92662;-71
2023/04/03 05:06:01;;;;;;;6.93;2.97;;;5.60;78.90;;;;;;4976337;28;93416;-71
2023/04/03 05:08:27;;;;;;;9.35;2.80;;;5.60;78.70;;;;;;4974602;28;92726;-70
2023/04/03 05:10:53;;;;;;;5.32;2.55;;;5.60;78.90;;;;;;4969433;28;92306;-71
2023/04/03 05:13:19;;;;;;;6.28;2.72;;;5.60;79.10;;;;;;4973687;28;92893;-71
2023/04/03 05:15:45;;;;;;;5.55;2.78;;;5.60;79.00;;;;;;4963175;28;93572;-70
2023/04/03 05:18:11;;;;;;;5.28;2.50;;;5.60;79.40;;;;;;4967485;28;93167;-71
2023/04/03 05:20:37;;;;;;;6.05;2.63;;;5.60;79.70;;;;;;4968528;28;92459;-70
2023/04/03 05:23:02;;;;;;;4.43;2.17;;;5.60;79.40;;;;;;4960369;28;92746;-69
2023/04/03 05:25:28;;;;;;;5.35;2.55;;;5.60;79.80;;;;;;4966480;28;92786;-71
2023/04/03 05:27:54;;;;;;;5.25;2.35;;;5.70;79.30;;;;;;4970137;28;93777;-70
2023/04/03 05:30:20;;;;;;;9.20;2.92;;;5.70;79.50;;;;;;4955189;28;92586;-69
2023/04/03 05:32:45;;;;;;;6.80;2.78;;;5.70;79.70;;;;;;4956970;28;93595;-71
2023/04/03 05:35:11;;;;;;;7.75;2.88;;;5.70;79.60;;;;;;4967060;28;93169;-70
2023/04/03 05:37:37;;;;;;;9.18;3.08;;;5.80;79.70;;;;;;4958551;28;94706;-69
2023/04/03 05:40:05;;;;;;;6.18;2.90;;;5.90;79.90;;;;;;4964855;28;93017;-72
2023/04/03 05:42:30;;;;;;;7.40;2.88;;;5.90;79.90;;;;;;4964262;28;94074;-71
2023/04/03 05:44:56;;;;;;;7.85;3.00;;;5.80;80.00;;;;;;4967744;28;93369;-72
2023/04/03 05:47:22;;;;;;;5.43;2.97;;;5.70;80.60;;;;;;4969607;28;92402;-71
2023/04/03 05:49:48;;;;;;;5.65;3.03;;;5.80;80.60;;;;;;4965052;28;94704;-71
2023/04/03 05:52:40;;;;;;;6.22;3.17;;;5.80;80.80;;;;;;4966866;28;92133;-71
2023/04/03 05:55:06;;;;;;;7.47;3.25;;;5.90;80.40;;;;;;4962932;28;93140;-70
2023/04/03 05:57:31;;;;;;;6.13;3.08;;;6.00;80.60;;;;;;4970722;28;93378;-70
2023/04/03 05:59:57;;;;;;;7.93;3.45;;;6.10;80.40;;;;;;4972472;28;92513;-69
2023/04/03 06:02:24;;;;;;;8.40;3.05;;;6.10;80.20;;;;;;4965213;28;92873;-72
2023/04/03 06:04:51;;;;;;;5.88;2.95;;;6.20;79.60;;;;;;4973427;28;95015;-70
2023/04/03 06:07:20;;;;;;;5.53;2.90;;;6.30;78.50;;;;;;4971230;28;94611;-70
2023/04/03 06:09:46;;;;;;;6.30;3.40;;;6.40;79.10;;;;;;4968639;28;92113;-71
2023/04/03 06:12:13;;;;;;;7.35;3.47;;;6.50;79.00;;;;;;4985479;28;92427;-69
2023/04/03 06:14:38;;;;;;;7.78;3.47;;;6.60;79.50;;;;;;4974795;28;92796;-71
2023/04/03 06:17:04;;;;;;;7.90;3.38;;;6.60;77.80;;;;;;4969575;28;92743;-69
2023/04/03 06:19:30;;;;;;;6.60;3.65;;;6.60;79.10;;;;;;4980622;28;92872;-70
2023/04/03 06:21:56;;;;;;;7.38;3.45;;;6.60;78.30;;;;;;4972633;28;91311;-72
2023/04/03 06:24:23;;;;;;;6.85;2.83;;;6.50;78.80;;;;;;4964594;28;94346;-71
2023/04/03 06:26:51;;;;;;;6.15;2.88;;;6.60;78.00;;;;;;4966115;28;92870;-72
2023/04/03 06:29:17;;;;;;;9.02;2.45;;;6.60;77.80;;;;;;4972743;28;93416;-69
2023/04/03 06:31:43;;;;;;;6.03;2.70;;;6.60;77.60;;;;;;4975261;28;92174;-70
2023/04/03 06:34:11;;;;;;;6.55;2.65;;;6.70;78.10;;;;;;4976483;28;92426;-70
2023/04/03 06:36:37;;;;;;;4.70;2.13;;;6.80;77.40;;;;;;4983113;28;92421;-70
2023/04/03 06:39:03;;;;;;;4.65;2.42;;;6.80;77.80;;;;;;4980343;28;92669;-69
2023/04/03 06:41:29;;;;;;;6.25;2.50;;;6.80;77.80;;;;;;4968610;28;92652;-71
2023/04/03 06:43:57;;;;;;;5.65;2.33;;;6.70;77.00;;;;;;4987966;28;92764;-72
2023/04/03 06:46:23;;;;;;;4.75;2.60;;;6.70;77.00;;;;;;4976145;28;92866;-71
2023/04/03 06:48:49;;;;;;;4.35;2.22;;;6.70;77.00;;;;;;4978761;28;92571;-72
2023/04/03 06:51:20;;;;;;;4.10;2.20;;;6.70;77.40;;;;;;4988300;28;92224;-71
2023/04/03 06:53:51;;;;;;;6.30;2.67;;;6.60;77.40;;;;;;4971735;28;93696;-71
2023/04/03 06:56:17;;;;;;;4.35;2.15;;;6.70;78.10;;;;;;4971096;28;93881;-72
2023/04/03 06:58:43;;;;;;;4.20;2.13;;;6.70;78.70;;;;;;4966530;28;92853;-71
2023/04/03 07:01:10;;;;;;;5.60;2.55;;;6.80;79.00;;;;;;4972540;28;92493;-70
2023/04/03 07:03:36;;;;;;;5.00;1.77;;;6.90;77.60;;;;;;4978698;28;92748;-71
2023/04/03 07:06:03;;;;;;;6.53;2.50;;;6.90;77.90;;;;;;4973820;28;92639;-71
2023/04/03 07:08:29;;;;;;;4.47;2.35;;;6.90;77.50;;;;;;4973517;28;92494;-70
2023/04/03 07:10:55;;;;;;;6.15;2.15;;;6.90;77.40;;;;;;4981184;28;91632;-69
2023/04/03 07:13:20;;;;;;;4.35;1.95;;;6.90;77.60;;;;;;4970536;28;92588;-71
2023/04/03 07:15:46;;;;;;;3.83;1.90;;;6.90;77.50;;;;;;4974171;28;92916;-71
2023/04/03 07:18:12;;;;;;;4.47;1.70;;;6.80;77.60;;;;;;4977679;28;93343;-69
2023/04/03 07:20:39;;;;;;;5.47;2.15;;;6.80;77.10;;;;;;4963653;28;92592;-71
2023/04/03 07:23:04;;;;;;;6.57;2.03;;;6.80;77.00;;;;;;4970905;28;93772;-71
2023/04/03 07:25:31;;;;;;;5.22;2.20;;;6.80;77.60;;;;;;4968733;28;92876;-70
2023/04/03 07:27:57;;;;;;;4.53;2.03;;;6.90;77.90;;;;;;4978304;28;92812;-70
2023/04/03 07:30:23;;;;;;;4.15;1.98;;;6.80;77.50;;;;;;4973217;28;92598;-71
2023/04/03 07:32:49;;;;;;;4.53;1.73;;;6.80;77.50;;;;;;4971340;28;92787;-70
2023/04/03 07:35:15;;;;;;;4.00;1.88;;;6.70;76.90;;;;;;4968356;28;92962;-71
2023/04/03 07:37:41;;;;;;;3.63;1.50;;;6.80;77.90;;;;;;4964035;28;92255;-71
2023/04/03 07:40:08;;;;;;;4.47;2.30;;;6.70;78.00;;;;;;4971567;28;92887;-70
2023/04/03 07:42:34;;;;;;;4.63;1.88;;;6.80;78.00;;;;;;4971070;28;94152;-71
2023/04/03 07:45:01;;;;;;;4.35;1.83;;;6.80;77.30;;;;;;4971872;28;93807;-70
2023/04/03 07:47:27;;;;;;;5.60;2.00;;;6.80;77.30;;;;;;4964291;28;93729;-69
2023/04/03 07:49:53;;;;;;;4.68;1.40;;;6.90;76.90;;;;;;4970810;28;92784;-70
2023/04/03 07:52:19;;;;;;;4.03;2.10;;;6.90;76.80;;;;;;4974464;28;93162;-71
2023/04/03 07:54:44;;;;;;;16.73;2.15;;;6.90;77.00;;;;;;4974329;28;92993;-71
2023/04/03 07:57:10;;;;;;;5.68;2.05;;;7.00;77.50;;;;;;4972692;28;92342;-70
2023/04/03 07:59:36;;;;;;;3.55;1.85;;;7.10;76.90;;;;;;4990602;28;91539;-71
2023/04/03 08:02:04;;;;;;;4.43;1.90;;;7.20;77.10;;;;;;4966877;28;93911;-70
2023/04/03 08:04:30;;;;;;;4.60;2.10;;;7.10;77.10;;;;;;4973684;28;94847;-70
2023/04/03 08:06:56;;;;;;;5.80;1.55;;;7.20;76.90;;;;;;4961699;28;93214;-70
2023/04/03 08:09:21;;;;;;;3.97;1.33;;;7.20;76.90;;;;;;4966545;28;92533;-71
2023/04/03 08:11:47;;;;;;;4.75;1.80;;;7.30;76.30;;;;;;4961252;28;92824;-71
2023/04/03 08:14:16;;;;;;;3.40;1.60;;;7.30;76.30;;;;;;4963985;28;92728;-71
2023/04/03 08:16:43;;;;;;;3.63;1.33;;;7.30;75.40;;;;;;4966121;28;92577;-70
2023/04/03 08:19:10;;;;;;;4.57;1.42;;;7.30;75.60;;;;;;4965401;28;92411;-70
2023/04/03 08:21:36;;;;;;;3.85;1.45;;;7.30;75.70;;;;;;4963096;28;92768;-70
2023/04/03 08:24:03;;;;;;;3.33;1.58;;;7.40;76.20;;;;;;4977763;28;92204;-70
2023/04/03 08:26:28;;;;;;;6.95;1.58;;;7.50;75.60;;;;;;4967275;28;94738;-70
2023/04/03 08:28:54;;;;;;;3.67;1.30;;;7.50;75.80;;;;;;4965530;28;93576;-71
2023/04/03 08:31:20;;;;;;;4.20;1.33;;;7.60;74.40;;;;;;4964874;28;94377;-70
2023/04/03 08:33:47;;;;;;;3.58;1.20;;;7.80;74.50;;;;;;4972808;28;93744;-72
2023/04/03 08:36:22;;;;;;;3.83;1.50;;;7.90;73.20;;;;;;4964757;28;92395;-71
2023/04/03 08:38:49;;;;;;;3.58;1.27;;;8.00;73.80;;;;;;4974052;28;92974;-70
2023/04/03 08:41:30;;;;;;;4.18;1.17;;;8.00;72.70;;;;;;4971664;28;93388;-70
2023/04/03 08:44:15;;;;;;;3.30;1.10;;;8.00;72.60;;;;;;4973242;28;92394;-70
2023/04/03 08:47:08;;;;;;;4.40;1.55;;;8.00;73.00;;;;;;4971936;28;92369;-71
2023/04/03 08:49:40;;;;;;;5.03;1.02;;;8.10;73.40;;;;;;4965520;28;93640;-70
2023/04/03 08:52:12;;;;;;;2.50;0.93;;;8.00;72.60;;;;;;4971816;28;92901;-71
2023/04/03 08:54:50;;;;;;;5.07;1.02;;;8.00;72.00;;;;;;4973727;28;92987;-71
2023/04/03 08:57:17;;;;;;;;;;;8.00;73.10;;;;;;4969011;28;93533;-70
2023/04/03 08:59:43;;;;;;;3.40;0.80;;;8.00;72.10;;;;;;4961941;28;92588;-70
2023/04/03 09:02:27;;;;;;;2.72;1.02;;;8.00;72.90;;;;;;4958141;28;92894;-71
2023/04/03 09:04:53;;;;;;;3.08;1.13;;;8.00;74.30;;;;;;4969189;28;92826;-70
2023/04/03 09:07:31;;;;;;;2.80;1.08;;;8.00;73.90;;;;;;4964945;28;92827;-71
2023/04/03 09:10:01;;;;;;;5.18;1.35;;;8.20;75.20;;;;;;4960325;28;92680;-71
2023/04/03 09:12:51;;;;;;;3.45;1.17;;;8.30;72.60;;;;;;4962299;28;93200;-71
2023/04/03 09:15:26;;;;;;;2.58;1.02;;;8.40;72.30;;;;;;4966768;28;92921;-71
2023/04/03 09:18:01;;;;;;;2.40;1.02;;;8.60;72.70;;;;;;4969080;28;93065;-70
2023/04/03 09:20:42;;;;;;;2.92;1.17;;;8.60;71.80;;;;;;4967578;28;92354;-71
2023/04/03 09:23:30;;;;;;;2.85;1.40;;;8.70;72.00;;;;;;4961029;28;93691;-73
2023/04/03 09:26:05;;;;;;;2.80;1.00;;;8.80;71.90;;;;;;4967969;28;94247;-73
2023/04/03 09:28:37;;;;;;;2.65;1.33;;;8.80;70.00;;;;;;4971106;28;92434;-72
2023/04/03 09:31:18;;;;;;;3.30;1.08;;;8.90;70.50;;;;;;4968171;28;92454;-72
2023/04/03 09:33:45;;;;;;;2.80;0.82;;;8.90;69.90;;;;;;4965387;28;92805;-72
2023/04/03 09:36:11;;;;;;;2.97;1.02;;;8.90;69.90;;;;;;4961776;28;92907;-69
2023/04/03 09:38:36;;;;;;;4.70;1.70;;;9.00;70.00;;;;;;4972360;28;92475;-71
2023/04/03 09:41:13;;;;;;;1.90;0.73;;;9.00;69.80;;;;;;4969691;28;91731;-69
2023/04/03 09:43:39;;;;;;;2.05;0.63;;;8.90;69.50;;;;;;4966356;28;93771;-72
2023/04/03 09:46:23;;;;;;;1.55;0.55;;;8.90;68.10;;;;;;4965998;28;92853;-72
2023/04/03 09:49:00;;;;;;;2.50;1.13;;;9.00;68.30;;;;;;4969872;28;93763;-69
2023/04/03 09:51:30;;;;;;;2.42;1.00;;;9.30;69.30;;;;;;4966388;28;92414;-71
2023/04/03 09:53:56;;;;;;;3.33;1.17;;;9.30;68.10;;;;;;4978811;28;92624;-72
2023/04/03 09:56:28;;;;;;;3.05;1.40;;;9.50;67.80;;;;;;4969237;28;92402;-71
2023/04/03 09:59:00;;;;;;;3.13;1.38;;;9.60;67.50;;;;;;4971508;28;92426;-72
2023/04/03 10:01:32;;;;;;;2.83;1.23;;;9.80;68.00;;;;;;4970445;28;92438;-72
2023/04/03 10:04:13;;;;;;;3.58;1.38;;;9.90;66.40;;;;;;4967557;28;93362;-71
2023/04/03 10:06:46;;;;;;;3.78;1.42;;;9.70;66.20;;;;;;4964527;28;95548;-71
2023/04/03 10:09:27;;;;;;;3.30;1.38;;;9.40;66.00;;;;;;4969870;28;93519;-71
2023/04/03 10:12:04;;;;;;;3.58;1.58;;;9.50;67.60;;;;;;4972572;28;93663;-71
2023/04/03 10:14:35;;;;;;;2.97;1.35;;;9.60;66.20;;;;;;4978288;28;93649;-72
2023/04/03 10:17:06;;;;;;;4.25;1.73;;;9.50;66.30;;;;;;4969176;28;93803;-71
2023/04/03 10:19:38;;;;;;;7.45;2.42;;;9.40;67.60;;;;;;4964835;28;93869;-70
2023/04/03 10:22:24;;;;;;;5.70;1.92;;;9.60;67.50;;;;;;4966470;28;92561;-72
2023/04/03 10:25:16;;;;;;;10.50;1.95;;;9.90;65.50;;;;;;4960624;28;92827;-72
2023/04/03 10:27:56;;;;;;;2.75;1.52;;;9.90;64.60;;;;;;4963203;28;92969;-71
2023/04/03 10:31:02;;;;;;;3.78;1.67;;;9.90;64.40;;;;;;4966313;28;92643;-72
2023/04/03 10:33:44;;;;;;;9.60;2.30;;;9.90;66.20;;;;;;4968165;28;93299;-71
2023/04/03 10:36:24;;;;;;;3.55;1.50;;;10.10;66.40;;;;;;4973351;28;93194;-71
2023/04/03 10:39:20;;;;;;;4.38;2.00;;;9.90;65.00;;;;;;4965766;28;93329;-72
2023/04/03 10:41:49;;;;;;;4.47;1.85;;;9.90;64.40;;;;;;4974011;28;93442;-71
2023/04/03 10:44:42;;;;;;;4.00;1.80;;;9.70;65.40;;;;;;4970558;28;92979;-71
2023/04/03 10:47:08;;;;;;;4.03;1.63;;;9.40;65.20;;;;;;4963173;28;94463;-71
2023/04/03 10:49:39;;;;;;;5.63;1.90;;;9.40;65.60;;;;;;4967062;28;92528;-71
2023/04/03 10:52:26;;;;;;;6.40;1.90;;;9.30;64.90;;;;;;4968577;28;92530;-72
2023/04/03 10:55:21;;;;;;;17.70;3.40;;;9.30;66.60;;;;;;4962787;28;94259;-71
2023/04/03 10:57:49;;;;;;;5.63;2.00;;;9.20;67.20;;;;;;4961391;28;93721;-70
2023/04/03 11:00:22;;;;;;;6.50;1.83;;;9.00;65.40;;;;;;4965222;28;92958;-72
2023/04/03 11:03:02;;;;;;;4.97;1.83;;;8.90;66.40;;;;;;4969091;28;94216;-71
2023/04/03 11:05:36;;;;;;;3.60;1.60;;;8.80;65.90;;;;;;4963914;28;93274;-71
2023/04/03 11:08:13;;;;;;;3.75;1.52;;;8.70;66.50;;;;;;4967403;28;94171;-71
2023/04/03 11:10:51;;;;;;;3.53;1.30;;;8.80;66.70;;;;;;4960763;28;94485;-71
2023/04/03 11:13:26;;;;;;;4.65;1.45;;;8.70;66.30;;;;;;4971363;28;92651;-71
2023/04/03 11:15:54;;;;;;;4.00;1.52;;;8.90;67.00;;;;;;4974561;28;92745;-71
2023/04/03 11:18:28;;;;;;;12.90;3.00;;;8.80;65.60;;;;;;4974017;28;93643;-71
2023/04/03 11:21:03;;;;;;;3.95;1.20;;;8.80;67.10;;;;;;4967204;28;92882;-72
2023/04/03 11:23:34;;;;;;;2.60;1.23;;;8.80;66.20;;;;;;4969863;28;92926;-72
2023/04/03 11:26:11;;;;;;;5.15;1.38;;;8.80;66.00;;;;;;4967052;28;91497;-72
2023/04/03 11:28:37;;;;;;;4.65;1.02;;;8.80;65.70;;;;;;4958692;28;93698;-71
2023/04/03 11:31:32;;;;;;;1.75;0.60;;;8.80;65.50;;;;;;4961283;28;93587;-71
2023/04/03 11:34:29;;;;;;;9.43;2.08;;;8.90;65.90;;;;;;4960308;28;93947;-72
2023/04/03 11:36:59;;;;;;;3.03;1.00;;;8.90;66.80;;;;;;4956759;28;92820;-72
2023/04/03 11:39:35;;;;;;;4.10;1.13;;;8.90;67.50;;;;;;4960122;28;95855;-72
2023/04/03 11:42:15;;;;;;;2.90;0.85;;;9.00;65.60;;;;;;4953594;28;94574;-71
2023/04/03 11:44:41;;;;;;;6.15;1.42;;;9.00;65.00;;;;;;4948771;28;92717;-71
2023/04/03 11:47:09;;;;;;;4.53;0.88;;;9.10;65.50;;;;;;4958107;28;92699;-72
2023/04/03 11:50:04;;;;;;;3.35;1.08;;;9.20;63.20;;;;;;4962398;28;93233;-70
2023/04/03 11:52:38;;;;;;;4.13;1.00;;;9.20;63.30;;;;;;4956808;28;93210;-72
2023/04/03 11:55:30;;;;;;;3.13;1.00;;;9.40;63.60;;;;;;4954688;28;93856;-71
2023/04/03 11:57:58;;;;;;;2.63;0.93;;;9.60;63.80;;;;;;4957733;28;94949;-71
2023/04/03 12:00:50;;;;;;;3.28;0.90;;;9.80;62.60;;;;;;4976108;28;94384;-70
2023/04/03 12:03:28;;;;;;;6.25;2.40;;;10.00;62.20;;;;;;4965762;28;94225;-71
2023/04/03 12:06:17;;;;;;;3.00;1.02;;;10.20;59.80;;;;;;4953317;28;94073;-70
2023/04/03 12:08:45;;;;;;;4.80;1.50;;;10.30;60.80;;;;;;4964674;28;92742;-71
2023/04/03 12:11:16;;;;;;;8.43;2.88;;;10.30;61.00;;;;;;4960753;28;94019;-71
2023/04/03 12:13:56;;;;;;;3.92;1.13;;;10.40;61.80;;;;;;4968265;28;92965;-70
2023/04/03 12:16:37;;;;;;;4.45;1.50;;;10.50;61.80;;;;;;4959873;28;92336;-71
2023/04/03 12:19:15;;;;;;;2.53;0.65;;;10.50;58.90;;;;;;4968359;28;91880;-71
2023/04/03 12:21:51;;;;;;;3.03;1.13;;;10.50;59.40;;;;;;4961346;28;93870;-70
2023/04/03 12:24:17;;;;;;;2.08;0.57;;;10.40;59.40;;;;;;4985797;28;92344;-70
2023/04/03 12:27:19;;;;;;;1.73;0.47;;;10.30;60.50;;;;;;4986530;28;93452;-71
2023/04/03 12:30:03;;;;;;;2.70;0.43;;;10.20;61.40;;;;;;4993822;28;93354;-71
2023/04/03 12:32:51;;;;;;;2.40;0.52;;;10.00;60.40;;;;;;4966031;28;93142;-71
2023/04/03 12:35:43;;;;;;;3.30;0.90;;;9.80;59.30;;;;;;4985034;28;93413;-70
2023/04/03 12:38:37;;;;;;;6.05;1.13;;;9.90;60.90;;;;;;4983019;28;92643;-71
2023/04/03 12:41:40;;;;;;;2.80;0.55;;;9.90;61.60;;;;;;4974140;28;92822;-71
2023/04/03 12:44:26;;;;;;;2.70;0.73;;;9.90;60.50;;;;;;4973139;28;92718;-69
2023/04/03 12:46:53;;;;;;;6.32;0.40;;;9.90;60.60;;;;;;4966906;28;93467;-71
2023/04/03 12:49:24;;;;;;;2.00;0.50;;;9.90;59.90;;;;;;4991129;28;92180;-70
2023/04/03 12:51:50;;;;;;;3.80;0.57;;;9.90;60.50;;;;;;4979549;28;92201;-71
2023/04/03 12:54:22;;;;;;;3.88;0.70;;;9.90;60.20;;;;;;4967636;28;94074;-71
2023/04/03 12:56:48;;;;;;;2.97;0.50;;;9.80;60.60;;;;;;4967830;28;93800;-71
2023/04/03 12:59:21;;;;;;;1.20;0.43;;;9.60;61.90;;;;;;4978413;28;92345;-71
2023/04/03 13:01:58;;;;;;;2.40;0.43;;;9.50;60.40;;;;;;4969372;28;92351;-71
2023/04/03 13:04:24;;;;;;;2.10;0.55;;;9.50;60.40;;;;;;4956946;28;92638;-71
2023/04/03 13:06:50;;;;;;;2.95;0.30;;;9.50;61.00;;;;;;4964354;28;92822;-71
2023/04/03 13:09:26;;;;;;;1.75;0.32;;;9.50;59.80;;;;;;4972609;28;92524;-71
2023/04/03 13:12:02;;;;;;;3.00;0.40;;;9.50;59.10;;;;;;4970854;28;91818;-71
2023/04/03 13:14:28;;;;;;;1.33;0.43;;;9.50;59.30;;;;;;4956472;28;92776;-71